createdAt,value
2022-08-03T00:00:33.338Z,63.11
2022-08-03T00:03:04.703Z,63.07
2022-08-03T00:05:35.672Z,62.57
2022-08-03T00:08:03.738Z,61.36
2022-08-03T00:10:33.030Z,58.73
2022-08-03T00:13:01.084Z,60.66
2022-08-03T00:15:28.979Z,63.89
2022-08-03T00:17:56.877Z,64.97
2022-08-03T00:20:25.234Z,61.80
2022-08-03T00:22:53.104Z,61.88
2022-08-03T00:25:21.030Z,59.04
2022-08-03T00:27:49.038Z,60.82
2022-08-03T00:30:18.938Z,64.33
2022-08-03T00:32:47.922Z,64.53
2022-08-03T00:35:35.110Z,61.63
2022-08-03T00:38:04.677Z,61.10
2022-08-03T00:40:32.832Z,62.09
2022-08-03T00:43:06.692Z,59.08
2022-08-03T00:45:37.622Z,61.02
2022-08-03T00:48:07.372Z,64.72
2022-08-03T00:50:55.343Z,64.21
2022-08-03T00:53:23.235Z,62.36
2022-08-03T00:55:51.350Z,61.61
2022-08-03T00:58:19.615Z,61.31
2022-08-03T01:00:47.549Z,62.16
2022-08-03T01:03:15.533Z,60.58
2022-08-03T01:06:03.238Z,60.24
2022-08-03T01:08:44.192Z,60.48
2022-08-03T01:11:59.997Z,60.44
2022-08-03T01:14:58.568Z,59.97
2022-08-03T01:17:34.806Z,59.73
2022-08-03T01:20:13.817Z,59.74
2022-08-03T01:22:59.895Z,62.91
2022-08-03T01:25:40.321Z,65.20
2022-08-03T01:28:26.845Z,63.53
2022-08-03T01:30:59.265Z,61.94
2022-08-03T01:33:37.302Z,62.25
2022-08-03T01:36:09.846Z,61.14
2022-08-03T01:38:44.019Z,60.78
2022-08-03T01:41:38.007Z,60.94
2022-08-03T01:44:29.852Z,60.43
2022-08-03T01:47:00.790Z,60.74
2022-08-03T01:49:32.098Z,60.23
2022-08-03T01:52:04.852Z,60.21
2022-08-03T01:54:42.525Z,59.08
2022-08-03T01:57:11.829Z,60.72
2022-08-03T01:59:41.709Z,64.65
2022-08-03T02:02:15.432Z,64.67
2022-08-03T02:05:01.654Z,62.44
2022-08-03T02:07:31.068Z,62.07
2022-08-03T02:10:00.311Z,61.91
2022-08-03T02:12:31.895Z,61.04
2022-08-03T02:15:01.528Z,60.77
2022-08-03T02:17:38.954Z,59.97
2022-08-03T02:20:13.574Z,60.03
2022-08-03T02:22:43.504Z,60.19
2022-08-03T02:25:13.001Z,59.28
2022-08-03T02:27:52.839Z,61.90
2022-08-03T02:30:23.718Z,64.87
2022-08-03T02:32:58.002Z,63.84
2022-08-03T02:35:29.798Z,62.60
2022-08-03T02:38:02.485Z,61.54
2022-08-03T02:40:32.386Z,60.99
2022-08-03T02:43:07.719Z,60.88
2022-08-03T02:45:45.371Z,61.10
2022-08-03T02:48:18.610Z,59.75
2022-08-03T02:50:48.310Z,60.77
2022-08-03T02:53:17.646Z,60.01
2022-08-03T02:55:47.305Z,59.82
2022-08-03T02:58:19.812Z,60.12
2022-08-03T03:00:48.695Z,60.04
2022-08-03T03:03:16.699Z,60.16
2022-08-03T03:05:55.754Z,60.35
2022-08-03T03:08:28.697Z,60.17
2022-08-03T03:11:01.007Z,60.34
2022-08-03T03:13:31.196Z,60.00
2022-08-03T03:16:02.579Z,60.28
2022-08-03T03:18:33.346Z,60.14
2022-08-03T03:21:03.662Z,57.84
2022-08-03T03:23:34.205Z,59.93
2022-08-03T03:26:02.641Z,64.21
2022-08-03T03:28:31.976Z,64.53
2022-08-03T03:31:01.078Z,62.80
2022-08-03T03:33:29.127Z,61.82
2022-08-03T03:35:58.662Z,61.34
2022-08-03T03:38:26.939Z,60.50
2022-08-03T03:40:55.209Z,58.82
2022-08-03T03:43:24.007Z,61.21
2022-08-03T03:45:53.767Z,64.04
2022-08-03T03:48:21.917Z,63.43
2022-08-03T03:50:50.676Z,61.65
2022-08-03T03:53:19.021Z,62.45
2022-08-03T03:56:01.673Z,61.27
2022-08-03T03:58:32.734Z,59.26
2022-08-03T04:01:01.141Z,61.41
2022-08-03T04:03:29.549Z,64.84
2022-08-03T04:06:17.532Z,64.86
2022-08-03T04:09:21.226Z,63.97
2022-08-03T04:11:51.809Z,61.27
2022-08-03T04:14:33.889Z,61.37
2022-08-03T04:17:05.740Z,61.37
2022-08-03T04:19:38.836Z,60.13
2022-08-03T04:22:10.926Z,57.96
2022-08-03T04:24:47.351Z,58.94
2022-08-03T04:27:18.559Z,64.34
2022-08-03T04:29:49.710Z,64.43
2022-08-03T04:32:18.369Z,63.44
2022-08-03T04:34:47.397Z,62.20
2022-08-03T04:37:23.897Z,61.33
2022-08-03T04:39:54.612Z,59.04
2022-08-03T04:42:26.353Z,56.78
2022-08-03T04:45:01.120Z,57.90
2022-08-03T04:47:33.320Z,63.75
2022-08-03T04:50:03.063Z,64.75
2022-08-03T04:52:31.592Z,61.92
2022-08-03T04:54:59.548Z,59.99
2022-08-03T04:57:27.494Z,56.89
2022-08-03T05:00:02.188Z,57.14
2022-08-03T05:02:31.955Z,59.52
2022-08-03T05:05:00.329Z,64.93
2022-08-03T05:07:36.175Z,63.71
2022-08-03T05:10:16.047Z,61.35
2022-08-03T05:12:47.703Z,61.45
2022-08-03T05:15:16.056Z,58.70
2022-08-03T05:17:44.179Z,57.97
2022-08-03T05:20:12.789Z,59.05
2022-08-03T05:22:40.822Z,63.89
2022-08-03T05:25:08.979Z,64.50
2022-08-03T05:27:36.993Z,61.65
2022-08-03T05:30:30.669Z,58.28
2022-08-03T05:32:53.630Z,58.83
2022-08-03T05:36:02.640Z,59.38
2022-08-03T05:38:09.663Z,63.65
2022-08-03T05:40:38.620Z,63.35
2022-08-03T05:43:15.001Z,56.46
2022-08-03T05:45:43.472Z,56.16
2022-08-03T05:48:11.415Z,57.79
2022-08-03T05:50:42.800Z,59.29
2022-08-03T05:53:10.891Z,63.55
2022-08-03T05:55:38.850Z,62.13
2022-08-03T05:58:06.891Z,56.99
2022-08-03T06:00:34.853Z,56.86
2022-08-03T06:03:02.836Z,58.31
2022-08-03T06:05:31.522Z,59.25
2022-08-03T06:07:59.418Z,63.76
2022-08-03T06:10:35.506Z,63.64
2022-08-03T06:13:05.602Z,61.54
2022-08-03T06:15:35.512Z,57.13
2022-08-03T06:18:03.616Z,56.36
2022-08-03T06:20:31.547Z,58.05
2022-08-03T06:23:01.366Z,59.46
2022-08-03T06:25:29.512Z,59.36
2022-08-03T06:27:59.582Z,64.20
2022-08-03T06:30:27.583Z,63.49
2022-08-03T06:32:55.533Z,59.06
2022-08-03T06:35:23.644Z,57.04
2022-08-03T06:37:52.811Z,57.67
2022-08-03T06:40:32.240Z,58.46
2022-08-03T06:43:02.349Z,58.44
2022-08-03T06:45:32.260Z,59.55
2022-08-03T06:48:11.766Z,63.77
2022-08-03T06:50:42.108Z,62.28
2022-08-03T06:53:11.390Z,58.16
2022-08-03T06:55:54.209Z,57.24
2022-08-03T06:58:24.252Z,57.84
2022-08-03T07:00:52.737Z,58.62
2022-08-03T07:03:21.025Z,59.78
2022-08-03T07:05:50.994Z,60.37
2022-08-03T07:08:19.298Z,64.29
2022-08-03T07:11:02.098Z,61.72
2022-08-03T07:13:30.170Z,56.80
2022-08-03T07:15:58.147Z,57.56
2022-08-03T07:18:29.686Z,58.63
2022-08-03T07:20:58.691Z,59.15
2022-08-03T07:23:26.682Z,61.27
2022-08-03T07:25:54.906Z,64.07
2022-08-03T07:28:22.889Z,63.02
2022-08-03T07:30:50.948Z,56.78
2022-08-03T07:33:18.945Z,56.01
2022-08-03T07:35:46.864Z,57.74
2022-08-03T07:38:14.786Z,58.53
2022-08-03T07:40:46.168Z,60.10
2022-08-03T07:43:14.456Z,60.46
2022-08-03T07:45:42.477Z,61.11
2022-08-03T07:48:12.623Z,61.38
2022-08-03T07:50:40.778Z,64.11
2022-08-03T07:53:08.877Z,61.97
2022-08-03T07:55:36.744Z,57.70
2022-08-03T07:58:12.624Z,56.36
2022-08-03T08:00:40.740Z,56.98
2022-08-03T08:03:09.050Z,58.21
2022-08-03T08:05:37.705Z,59.96
2022-08-03T08:08:05.948Z,61.14
2022-08-03T08:10:35.236Z,61.20
2022-08-03T08:13:04.881Z,60.80
2022-08-03T08:15:33.038Z,64.01
2022-08-03T08:18:02.552Z,61.14
2022-08-03T08:20:37.961Z,57.56
2022-08-03T08:23:19.275Z,57.31
2022-08-03T08:25:56.973Z,57.02
2022-08-03T08:28:32.303Z,57.97
2022-08-03T08:31:01.969Z,57.94
2022-08-03T08:33:42.486Z,57.81
2022-08-03T08:36:18.419Z,57.59
2022-08-03T08:38:46.490Z,57.10
2022-08-03T08:41:15.743Z,58.12
2022-08-03T08:43:43.878Z,58.57
2022-08-03T08:46:23.222Z,58.69
2022-08-03T08:48:54.160Z,58.93
2022-08-03T08:51:23.157Z,58.53
2022-08-03T08:53:54.003Z,58.33
2022-08-03T08:56:25.775Z,58.46
2022-08-03T08:58:58.504Z,57.53
2022-08-03T09:01:27.753Z,57.60
2022-08-03T09:03:55.740Z,56.23
2022-08-03T09:06:24.229Z,56.43
2022-08-03T09:08:52.265Z,56.50
2022-08-03T09:11:52.645Z,55.87
2022-08-03T09:14:34.432Z,55.04
2022-08-03T09:17:04.817Z,55.50
2022-08-03T09:19:34.884Z,55.31
2022-08-03T09:22:14.444Z,55.99
2022-08-03T09:25:22.661Z,55.82
2022-08-03T09:27:49.009Z,56.38
2022-08-03T09:30:33.391Z,56.27
2022-08-03T09:33:05.504Z,56.16
2022-08-03T09:35:53.028Z,57.00
2022-08-03T09:38:24.348Z,56.94
2022-08-03T09:40:58.843Z,56.81
2022-08-03T09:43:48.517Z,56.77
2022-08-03T09:46:18.807Z,56.18
2022-08-03T09:48:46.800Z,54.90
2022-08-03T09:51:32.755Z,54.05
2022-08-03T09:54:15.047Z,53.68
2022-08-03T09:56:47.413Z,53.17
2022-08-03T09:59:27.908Z,52.58
2022-08-03T10:01:57.236Z,52.78
2022-08-03T10:04:25.946Z,50.84
2022-08-03T10:07:09.491Z,49.31
2022-08-03T10:09:38.234Z,49.31
2022-08-03T10:12:13.966Z,49.12
2022-08-03T10:14:45.431Z,49.97
2022-08-03T10:17:13.889Z,50.38
2022-08-03T10:19:42.263Z,49.86
2022-08-03T10:22:22.793Z,49.98
2022-08-03T10:24:59.430Z,50.62
2022-08-03T10:27:32.926Z,51.02
2022-08-03T10:30:05.144Z,49.28
2022-08-03T10:32:43.229Z,47.59
2022-08-03T10:35:23.547Z,47.83
2022-08-03T10:38:23.112Z,47.93
2022-08-03T10:40:58.956Z,47.86
2022-08-03T10:43:49.254Z,45.86
2022-08-03T10:46:20.807Z,45.64
2022-08-03T10:48:51.820Z,45.61
2022-08-03T10:51:21.203Z,44.05
2022-08-03T10:53:54.490Z,44.40
2022-08-03T10:56:50.786Z,43.75
2022-08-03T10:59:46.709Z,44.15
2022-08-03T11:02:15.459Z,44.91
2022-08-03T11:04:45.347Z,45.72
2022-08-03T11:07:36.020Z,45.50
2022-08-03T11:10:07.766Z,45.56
2022-08-03T11:12:38.639Z,45.71
2022-08-03T11:15:08.889Z,45.53
2022-08-03T11:17:46.285Z,44.71
2022-08-03T11:20:57.642Z,43.97
2022-08-03T11:24:04.442Z,43.18
2022-08-03T11:26:30.263Z,42.93
2022-08-03T11:29:28.703Z,42.36
2022-08-03T11:31:56.604Z,42.74
2022-08-03T11:34:25.191Z,42.39
2022-08-03T11:37:22.965Z,42.59
2022-08-03T11:39:54.730Z,43.62
2022-08-03T11:42:22.963Z,42.88
2022-08-03T11:44:52.892Z,41.46
2022-08-03T11:47:21.947Z,40.68
2022-08-03T11:49:52.133Z,39.80
2022-08-03T11:52:26.674Z,38.69
2022-08-03T11:54:56.528Z,39.92
2022-08-03T11:59:10.731Z,38.94
2022-08-03T12:00:21.879Z,38.69
2022-08-03T12:03:13.960Z,37.71
2022-08-03T12:05:51.964Z,36.11
2022-08-03T12:08:32.370Z,34.86
2022-08-03T12:11:04.632Z,35.84
2022-08-03T12:14:44.123Z,36.01
2022-08-03T12:16:28.897Z,35.18
2022-08-03T12:18:59.437Z,35.87
2022-08-03T12:21:28.118Z,36.22
2022-08-03T12:24:05.998Z,36.15
2022-08-03T12:26:58.988Z,35.54
2022-08-03T12:29:28.910Z,34.70
2022-08-03T12:31:57.190Z,35.17
2022-08-03T12:34:47.226Z,34.63
2022-08-03T12:37:29.005Z,34.70
2022-08-03T12:40:10.104Z,34.37
2022-08-03T12:42:39.937Z,34.80
2022-08-03T12:45:21.250Z,36.45
2022-08-03T12:47:52.726Z,35.82
2022-08-03T12:50:27.235Z,34.74
2022-08-03T12:52:56.058Z,35.01
2022-08-03T12:55:24.775Z,34.07
2022-08-03T12:57:52.680Z,33.16
2022-08-03T13:00:21.381Z,32.22
2022-08-03T13:03:26.516Z,32.57
2022-08-03T13:05:48.294Z,32.80
2022-08-03T13:08:23.539Z,33.15
2022-08-03T13:10:52.035Z,32.71
2022-08-03T13:13:38.407Z,32.84
2022-08-03T13:16:06.396Z,33.50
2022-08-03T13:18:34.338Z,32.21
2022-08-03T13:21:02.423Z,30.58
2022-08-03T13:23:30.487Z,30.49
2022-08-03T13:25:58.524Z,31.35
2022-08-03T13:28:26.533Z,32.53
2022-08-03T13:30:54.908Z,33.16
2022-08-03T13:33:22.937Z,33.42
2022-08-03T13:35:50.969Z,33.67
2022-08-03T13:38:18.994Z,34.00
2022-08-03T13:40:51.987Z,34.13
2022-08-03T13:43:21.597Z,34.94
2022-08-03T13:45:53.533Z,34.64
2022-08-03T13:48:37.728Z,33.87
2022-08-03T13:51:21.596Z,33.99
2022-08-03T13:53:51.591Z,33.27
2022-08-03T13:56:19.552Z,33.39
2022-08-03T13:58:47.476Z,33.43
2022-08-03T14:01:15.666Z,31.77
2022-08-03T14:03:43.729Z,31.81
2022-08-03T14:06:11.692Z,31.77
2022-08-03T14:08:39.561Z,31.53
2022-08-03T14:11:07.479Z,31.03
2022-08-03T14:13:35.353Z,29.67
2022-08-03T14:16:03.940Z,28.59
2022-08-03T14:18:33.536Z,29.05
2022-08-03T14:21:06.447Z,29.11
2022-08-03T14:23:36.083Z,28.72
2022-08-03T14:26:07.941Z,27.81
2022-08-03T14:28:36.313Z,28.08
2022-08-03T14:31:08.373Z,29.15
2022-08-03T14:33:53.061Z,29.27
2022-08-03T14:36:21.048Z,29.94
2022-08-03T14:38:49.173Z,29.96
2022-08-03T14:41:20.047Z,29.29
2022-08-03T14:44:01.346Z,29.14
2022-08-03T14:46:31.380Z,28.98
2022-08-03T14:49:02.650Z,29.06
2022-08-03T14:51:51.230Z,29.16
2022-08-03T14:54:22.830Z,28.83
2022-08-03T14:56:51.176Z,29.31
2022-08-03T14:59:19.271Z,29.76
2022-08-03T15:02:02.696Z,29.49
2022-08-03T15:04:34.804Z,28.66
2022-08-03T15:07:02.940Z,28.78
2022-08-03T15:09:31.028Z,28.95
2022-08-03T15:11:59.691Z,28.70
2022-08-03T15:14:28.327Z,28.74
2022-08-03T15:17:01.140Z,28.19
2022-08-03T15:20:03.743Z,28.21
2022-08-03T15:22:18.981Z,28.75
2022-08-03T15:24:48.831Z,28.31
2022-08-03T15:27:16.890Z,28.12
2022-08-03T15:30:07.284Z,28.14
2022-08-03T15:32:34.070Z,28.23
2022-08-03T15:35:02.268Z,28.25
2022-08-03T15:37:33.234Z,27.81
2022-08-03T15:40:01.349Z,27.48
2022-08-03T15:42:30.682Z,28.61
2022-08-03T15:44:58.903Z,28.88
2022-08-03T15:47:27.492Z,28.67
2022-08-03T15:49:55.836Z,28.66
2022-08-03T15:52:24.016Z,28.14
2022-08-03T15:54:52.081Z,28.86
2022-08-03T15:57:20.700Z,29.14
2022-08-03T15:59:49.041Z,28.71
2022-08-03T16:02:17.075Z,28.80
2022-08-03T16:04:45.042Z,29.08
2022-08-03T16:07:15.920Z,28.88
2022-08-03T16:09:44.310Z,28.81
2022-08-03T16:12:16.272Z,29.40
2022-08-03T16:14:53.781Z,28.95
2022-08-03T16:17:22.640Z,29.29
2022-08-03T16:19:54.830Z,29.24
2022-08-03T16:22:24.192Z,28.81
2022-08-03T16:24:53.536Z,29.16
2022-08-03T16:27:58.151Z,29.08
2022-08-03T16:30:12.855Z,28.81
2022-08-03T16:32:40.825Z,29.19
2022-08-03T16:35:09.323Z,28.93
2022-08-03T16:37:51.843Z,28.62
2022-08-03T16:40:25.581Z,28.53
2022-08-03T16:42:53.558Z,28.62
2022-08-03T16:45:21.653Z,29.09
2022-08-03T16:48:01.738Z,29.91
2022-08-03T16:50:35.447Z,30.76
2022-08-03T16:53:09.497Z,30.84
2022-08-03T16:55:49.010Z,30.59
2022-08-03T16:58:34.825Z,30.36
2022-08-03T17:01:22.021Z,30.53
2022-08-03T17:04:02.816Z,30.52
2022-08-03T17:06:36.216Z,31.34
2022-08-03T17:09:12.801Z,31.44
2022-08-03T17:11:46.533Z,31.30
2022-08-03T17:14:17.386Z,30.35
2022-08-03T17:16:53.820Z,29.98
2022-08-03T17:19:25.361Z,29.83
2022-08-03T17:22:16.013Z,29.56
2022-08-03T17:24:51.077Z,29.60
2022-08-03T17:28:48.060Z,29.32
2022-08-03T17:30:15.944Z,29.45
2022-08-03T17:32:52.615Z,29.95
2022-08-03T17:35:34.313Z,30.16
2022-08-03T17:38:08.881Z,30.66
2022-08-03T17:40:48.277Z,31.99
2022-08-03T17:44:14.443Z,32.78
2022-08-03T17:46:10.780Z,33.48
2022-08-03T17:48:41.546Z,33.74
2022-08-03T17:51:30.025Z,34.16
2022-08-03T17:54:21.064Z,35.06
2022-08-03T17:57:01.334Z,36.15
2022-08-03T18:00:23.016Z,37.72
2022-08-03T18:03:15.997Z,39.22
2022-08-03T18:06:12.003Z,40.71
2022-08-03T18:08:43.337Z,42.61
2022-08-03T18:11:16.819Z,44.00
2022-08-03T18:13:57.975Z,45.17
2022-08-03T18:16:37.684Z,46.20
2022-08-03T18:19:09.685Z,47.00
2022-08-03T18:22:03.383Z,48.07
2022-08-03T18:24:31.517Z,48.79
2022-08-03T18:27:02.565Z,49.70
2022-08-03T18:29:31.338Z,50.13
2022-08-03T18:32:05.973Z,50.65
2022-08-03T18:34:41.151Z,51.35
2022-08-03T18:37:26.168Z,51.56
2022-08-03T18:39:58.370Z,52.11
2022-08-03T18:42:28.134Z,52.32
2022-08-03T18:48:11.895Z,53.29
2022-08-03T18:51:09.919Z,53.98
2022-08-03T18:56:50.178Z,54.84
2022-08-03T18:59:38.677Z,55.70
2022-08-03T19:02:09.659Z,56.29
2022-08-03T19:04:46.185Z,56.70
2022-08-03T19:07:23.346Z,56.90
2022-08-03T19:09:55.838Z,57.03
2022-08-03T19:12:37.848Z,57.26
2022-08-03T19:15:10.237Z,57.41
2022-08-03T19:17:53.305Z,57.04
2022-08-03T19:20:28.213Z,57.43
2022-08-03T19:22:57.437Z,57.66
2022-08-03T19:25:34.508Z,57.85
2022-08-03T19:28:07.528Z,58.22
2022-08-03T19:30:39.893Z,58.47
2022-08-03T19:33:14.028Z,58.73
2022-08-03T19:35:55.006Z,59.23
2022-08-03T19:38:28.186Z,59.37
2022-08-03T19:41:02.086Z,59.88
2022-08-03T19:43:53.410Z,60.07
2022-08-03T19:46:30.946Z,60.30
2022-08-03T19:49:14.711Z,60.56
2022-08-03T19:52:00.561Z,59.39
2022-08-03T19:54:53.429Z,59.64
2022-08-03T19:57:25.229Z,60.18
2022-08-03T19:59:55.129Z,60.49
2022-08-03T20:02:26.399Z,60.57
2022-08-03T20:04:57.181Z,60.57
2022-08-03T20:07:26.969Z,60.79
2022-08-03T20:09:56.676Z,60.90
2022-08-03T20:12:28.045Z,60.89
2022-08-03T20:14:58.562Z,61.14
2022-08-03T20:17:54.881Z,60.61
2022-08-03T20:20:24.110Z,60.54
2022-08-03T20:22:57.582Z,60.25
2022-08-03T20:25:38.754Z,60.24
2022-08-03T20:28:14.959Z,60.12
2022-08-03T20:30:47.200Z,60.10
2022-08-03T20:33:18.248Z,60.13
2022-08-03T20:35:49.788Z,60.38
2022-08-03T20:42:28.983Z,59.87
2022-08-03T20:45:04.374Z,60.25
2022-08-03T20:47:35.896Z,60.13
2022-08-03T20:50:04.558Z,60.42
2022-08-03T20:52:49.487Z,60.34
2022-08-03T20:55:47.062Z,60.53
2022-08-03T20:58:07.223Z,60.69
2022-08-03T21:00:35.439Z,60.92
2022-08-03T21:03:03.971Z,60.95
2022-08-03T21:05:51.290Z,61.32
2022-08-03T21:08:22.510Z,61.37
2022-08-03T21:10:59.138Z,61.48
2022-08-03T21:12:59.144Z,52.88
2022-08-03T21:13:09.878Z,54.44
2022-08-03T21:13:27.867Z,61.55
2022-08-03T21:16:11.708Z,61.69
2022-08-03T21:18:52.454Z,61.72
2022-08-03T21:21:22.921Z,64.44
2022-08-03T21:23:53.527Z,68.64
2022-08-03T21:26:26.017Z,61.41
2022-08-03T21:28:56.848Z,59.66
2022-08-03T21:31:26.523Z,56.22
2022-08-03T21:34:00.949Z,56.83
2022-08-03T21:36:34.666Z,57.47
2022-08-03T21:39:05.224Z,57.86
2022-08-03T21:41:33.289Z,58.31
2022-08-03T21:44:02.273Z,58.92
2022-08-03T21:46:35.579Z,59.95
2022-08-03T21:50:07.262Z,60.63
2022-08-03T21:52:05.197Z,60.79
2022-08-03T21:54:38.251Z,61.37
2022-08-03T21:57:13.354Z,61.80
2022-08-03T21:59:48.001Z,63.28
2022-08-03T22:02:24.032Z,65.64
2022-08-03T22:04:56.287Z,62.18
2022-08-03T22:07:27.654Z,58.86
2022-08-03T22:09:56.889Z,56.35
2022-08-03T22:12:27.285Z,57.06
2022-08-03T22:15:00.830Z,58.15
2022-08-03T22:17:55.060Z,59.24
2022-08-03T22:20:21.358Z,60.15
2022-08-03T22:22:56.061Z,60.85
2022-08-03T22:25:30.929Z,61.21
2022-08-03T22:28:01.592Z,61.71
2022-08-03T22:30:29.795Z,61.90
2022-08-03T22:32:59.437Z,63.93
2022-08-03T22:35:28.127Z,65.87
2022-08-03T22:37:58.585Z,61.83
2022-08-03T22:40:27.978Z,57.09
2022-08-03T22:42:56.881Z,56.83
2022-08-03T22:46:06.404Z,58.79
2022-08-03T22:48:18.207Z,60.43
2022-08-03T22:50:47.221Z,61.65
2022-08-03T22:53:21.086Z,63.78
2022-08-03T22:55:50.427Z,61.82
2022-08-03T22:58:23.471Z,58.47
2022-08-03T23:01:12.003Z,57.01
2022-08-03T23:04:00.253Z,58.55
2022-08-03T23:06:36.006Z,60.21
2022-08-03T23:09:07.090Z,61.56
2022-08-03T23:11:45.791Z,61.99
2022-08-03T23:14:16.775Z,64.10
2022-08-03T23:16:46.596Z,65.25
2022-08-03T23:19:24.986Z,59.01
2022-08-03T23:22:03.298Z,57.23
2022-08-03T23:24:38.174Z,58.54
2022-08-03T23:27:08.180Z,60.08
2022-08-03T23:29:38.548Z,60.80
2022-08-03T23:32:07.065Z,61.51
2022-08-03T23:34:57.319Z,61.69
2022-08-03T23:37:26.445Z,61.73
2022-08-03T23:39:57.069Z,64.05
2022-08-03T23:42:26.199Z,66.41
2022-08-03T23:44:59.293Z,60.32
2022-08-03T23:47:46.839Z,57.40
2022-08-03T23:50:16.852Z,57.74
2022-08-03T23:52:53.358Z,59.38
2022-08-03T23:55:36.812Z,60.35
2022-08-03T23:58:38.385Z,61.08
